createdAt,value
2022-11-26T00:03:16.928Z,13.70
2022-11-26T00:07:22.421Z,14.37
2022-11-26T00:11:25.465Z,13.40
2022-11-26T00:15:27.971Z,13.97
2022-11-26T00:19:28.286Z,14.17
2022-11-26T00:23:31.575Z,14.90
2022-11-26T00:27:34.618Z,13.40
2022-11-26T00:31:34.712Z,11.63
2022-11-26T00:35:35.033Z,11.83
2022-11-26T00:39:35.146Z,12.93
2022-11-26T00:43:37.798Z,11.93
2022-11-26T00:47:37.857Z,12.83
2022-11-26T00:51:38.618Z,14.30
2022-11-26T00:55:42.801Z,13.07
2022-11-26T00:59:45.433Z,13.07
2022-11-26T01:03:46.688Z,12.67
2022-11-26T01:07:48.336Z,12.73
2022-11-26T01:11:53.507Z,14.10
2022-11-26T01:15:57.599Z,13.73
2022-11-26T01:19:57.746Z,13.53
2022-11-26T01:23:58.021Z,13.53
2022-11-26T01:27:58.597Z,12.73
2022-11-26T01:32:01.678Z,13.40
2022-11-26T01:36:02.092Z,13.23
2022-11-26T01:40:02.171Z,13.93
2022-11-26T01:44:03.743Z,14.33
2022-11-26T01:48:30.089Z,14.70
2022-11-26T01:52:30.497Z,13.77
2022-11-26T01:56:37.198Z,15.20
2022-11-26T02:00:37.597Z,17.40
2022-11-26T02:04:47.837Z,14.97
2022-11-26T02:08:49.245Z,15.77
2022-11-26T02:12:50.257Z,16.73
2022-11-26T02:17:09.039Z,17.17
2022-11-26T02:21:21.520Z,18.13
2022-11-26T02:25:38.094Z,17.00
2022-11-26T02:30:05.982Z,18.03
2022-11-26T02:34:17.856Z,17.10
2022-11-26T02:38:25.382Z,17.57
2022-11-26T02:42:29.966Z,16.90
2022-11-26T02:46:32.714Z,16.60
2022-11-26T02:50:39.621Z,17.00
2022-11-26T02:54:43.007Z,15.23
2022-11-26T02:58:43.289Z,16.17
2022-11-26T03:02:53.800Z,15.93
2022-11-26T03:06:57.622Z,15.20
2022-11-26T03:10:57.949Z,15.67
2022-11-26T03:14:58.494Z,15.20
2022-11-26T03:19:01.101Z,15.13
2022-11-26T03:23:01.214Z,14.17
2022-11-26T03:27:01.555Z,14.40
2022-11-26T03:31:01.650Z,16.03
2022-11-26T03:35:04.477Z,15.50
2022-11-26T03:39:04.661Z,14.60
2022-11-26T03:43:04.731Z,14.93
2022-11-26T03:47:05.376Z,16.33
2022-11-26T03:51:08.129Z,16.93
2022-11-26T03:55:09.738Z,15.77
2022-11-26T03:59:10.336Z,15.83
2022-11-26T04:03:11.845Z,16.30
2022-11-26T04:07:14.695Z,16.37
2022-11-26T04:11:15.133Z,16.67
2022-11-26T04:15:15.321Z,15.70
2022-11-26T04:19:15.506Z,16.03
2022-11-26T04:23:18.159Z,14.37
2022-11-26T04:27:18.252Z,14.00
2022-11-26T04:31:18.401Z,14.03
2022-11-26T04:35:19.690Z,13.53
2022-11-26T04:39:22.343Z,11.30
2022-11-26T04:43:22.448Z,11.20
2022-11-26T04:47:22.660Z,10.10
2022-11-26T04:51:22.726Z,9.17
2022-11-26T04:55:25.405Z,8.17
2022-11-26T04:59:25.647Z,8.33
2022-11-26T05:03:25.920Z,8.00
2022-11-26T05:07:26.042Z,8.37
2022-11-26T05:11:28.895Z,7.63
2022-11-26T05:15:29.811Z,7.60
2022-11-26T05:19:30.309Z,8.27
2022-11-26T05:23:30.326Z,8.43
2022-11-26T05:27:32.987Z,7.63
2022-11-26T05:31:33.223Z,8.60
2022-11-26T05:35:33.361Z,8.20
2022-11-26T05:39:33.566Z,8.40
2022-11-26T05:43:36.431Z,9.93
2022-11-26T05:47:36.581Z,11.03
2022-11-26T05:51:36.703Z,12.10
2022-11-26T05:55:36.915Z,13.07
2022-11-26T05:59:39.673Z,13.60
2022-11-26T06:03:41.361Z,15.07
2022-11-26T06:07:44.675Z,14.30
2022-11-26T06:11:45.182Z,14.60
2022-11-26T06:15:48.214Z,14.27
2022-11-26T06:19:48.330Z,14.40
2022-11-26T06:23:55.873Z,16.20
2022-11-26T06:27:59.152Z,15.53
2022-11-26T06:32:01.942Z,15.63
2022-11-26T06:36:03.122Z,15.40
2022-11-26T06:40:03.576Z,15.30
2022-11-26T06:44:03.886Z,16.47
2022-11-26T06:48:07.113Z,15.10
2022-11-26T06:52:07.891Z,18.00
2022-11-26T06:56:18.158Z,16.13
2022-11-26T07:00:19.625Z,19.30
2022-11-26T07:04:22.374Z,17.93
2022-11-26T07:08:22.667Z,19.20
2022-11-26T07:12:22.736Z,19.07
2022-11-26T07:16:23.426Z,17.77
2022-11-26T07:20:26.251Z,17.97
2022-11-26T07:24:26.331Z,18.77
2022-11-26T07:28:26.435Z,16.57
2022-11-26T07:32:26.937Z,14.40
2022-11-26T07:36:32.277Z,13.73
2022-11-26T07:40:32.593Z,13.57
2022-11-26T07:44:32.696Z,17.50
2022-11-26T07:48:33.591Z,17.13
2022-11-26T07:52:36.486Z,14.80
2022-11-26T07:56:37.059Z,15.53
2022-11-26T08:00:37.360Z,15.90
2022-11-26T08:04:37.805Z,13.70
2022-11-26T08:08:41.866Z,12.07
2022-11-26T08:12:42.098Z,17.77
2022-11-26T08:16:42.960Z,12.17
2022-11-26T08:20:43.030Z,11.60
2022-11-26T08:24:45.975Z,11.33
2022-11-26T08:28:47.207Z,10.83
2022-11-26T08:32:47.675Z,10.13
2022-11-26T08:36:48.939Z,10.23
2022-11-26T08:40:51.854Z,9.17
2022-11-26T08:44:52.398Z,10.20
2022-11-26T08:48:52.650Z,9.30
2022-11-26T08:52:52.809Z,11.03
2022-11-26T08:56:56.788Z,10.30
2022-11-26T09:00:57.282Z,15.37
2022-11-26T09:04:57.790Z,13.37
2022-11-26T09:09:10.764Z,12.47
2022-11-26T09:13:17.225Z,12.30
2022-11-26T09:17:19.932Z,13.17
2022-11-26T09:21:19.970Z,13.10
2022-11-26T09:25:20.230Z,12.50
2022-11-26T09:29:27.548Z,11.03
2022-11-26T09:33:28.258Z,10.90
2022-11-26T09:37:28.337Z,9.90
2022-11-26T09:41:43.814Z,14.93
2022-11-26T09:45:52.757Z,10.80
2022-11-26T09:50:19.225Z,10.43
2022-11-26T09:54:23.761Z,11.50
2022-11-26T09:58:31.379Z,11.23
2022-11-26T10:02:34.244Z,11.40
2022-11-26T10:06:49.225Z,10.93
2022-11-26T10:11:03.579Z,8.77
2022-11-26T10:15:16.131Z,6.27
2022-11-26T10:19:27.800Z,7.00
2022-11-26T10:23:36.564Z,8.70
2022-11-26T10:27:38.029Z,9.10
2022-11-26T10:31:38.216Z,7.90
2022-11-26T10:35:48.091Z,7.57
2022-11-26T10:39:48.216Z,8.57
2022-11-26T10:43:49.055Z,9.57
2022-11-26T10:47:49.301Z,8.60
2022-11-26T10:51:56.023Z,9.53
2022-11-26T10:56:00.490Z,9.80
2022-11-26T11:00:00.615Z,8.77
2022-11-26T11:04:09.516Z,8.93
2022-11-26T11:08:17.234Z,8.67
2022-11-26T11:12:26.078Z,8.60
2022-11-26T11:16:32.345Z,7.83
2022-11-26T11:20:37.555Z,8.10
2022-11-26T11:24:40.264Z,7.40
2022-11-26T11:28:43.370Z,8.27
2022-11-26T11:32:44.050Z,7.83
2022-11-26T11:36:44.175Z,8.30
2022-11-26T11:40:47.170Z,8.93
2022-11-26T11:44:51.085Z,9.03
2022-11-26T11:49:06.752Z,9.50
2022-11-26T11:53:30.137Z,10.47
2022-11-26T11:57:59.393Z,10.90
2022-11-26T12:02:27.142Z,13.27
2022-11-26T12:06:41.322Z,13.90
2022-11-26T12:10:55.962Z,14.73
2022-11-26T12:15:09.619Z,13.33
2022-11-26T12:19:21.638Z,11.70
2022-11-26T12:23:35.363Z,12.20
2022-11-26T12:27:43.020Z,8.97
2022-11-26T12:31:52.806Z,9.20
2022-11-26T12:35:59.104Z,8.23
2022-11-26T12:40:05.344Z,6.83
2022-11-26T12:44:16.595Z,6.93
2022-11-26T12:48:36.761Z,7.83
2022-11-26T12:52:47.884Z,7.50
2022-11-26T12:56:59.822Z,7.50
2022-11-26T13:01:01.387Z,7.97
2022-11-26T13:05:04.242Z,8.53
2022-11-26T13:09:19.893Z,10.37
2022-11-26T13:13:33.155Z,10.63
2022-11-26T13:17:44.448Z,7.80
2022-11-26T13:22:08.865Z,7.77
2022-11-26T13:26:41.347Z,7.20
2022-11-26T13:31:03.256Z,7.23
2022-11-26T13:35:28.521Z,6.90
2022-11-26T13:40:25.494Z,7.13
2022-11-26T13:45:03.443Z,7.73
2022-11-26T13:49:11.811Z,7.33
2022-11-26T13:53:25.020Z,8.57
2022-11-26T13:57:39.705Z,9.10
2022-11-26T14:01:42.817Z,9.63
2022-11-26T14:06:11.654Z,9.73
2022-11-26T14:10:46.209Z,10.23
2022-11-26T14:14:50.425Z,9.73
2022-11-26T14:19:03.604Z,9.57
2022-11-26T14:23:45.746Z,11.43
2022-11-26T14:27:57.315Z,10.30
2022-11-26T14:32:00.660Z,10.47
2022-11-26T14:36:00.810Z,10.90
2022-11-26T14:40:02.774Z,10.90
2022-11-26T14:44:10.074Z,10.80
2022-11-26T14:48:25.727Z,11.77
2022-11-26T14:52:30.797Z,13.63
2022-11-26T14:56:32.735Z,12.53
2022-11-26T15:00:35.192Z,11.50
2022-11-26T15:04:39.028Z,11.10
2022-11-26T15:08:39.332Z,10.23
2022-11-26T15:12:39.751Z,11.70
2022-11-26T15:16:42.871Z,11.20
2022-11-26T15:20:45.739Z,11.60
2022-11-26T15:24:46.070Z,11.10
2022-11-26T15:28:46.361Z,12.97
2022-11-26T15:32:46.651Z,11.83
2022-11-26T15:36:49.467Z,12.07
2022-11-26T15:40:54.351Z,12.47
2022-11-26T15:44:54.594Z,13.70
2022-11-26T15:48:59.271Z,14.67
2022-11-26T15:53:07.700Z,12.70
2022-11-26T15:57:13.134Z,12.20
2022-11-26T16:01:21.900Z,15.10
2022-11-26T16:05:31.462Z,12.70
2022-11-26T16:09:35.652Z,12.63
2022-11-26T16:13:37.329Z,11.70
2022-11-26T16:17:39.506Z,11.87
2022-11-26T16:21:40.976Z,12.87
2022-11-26T16:25:43.638Z,12.83
2022-11-26T16:29:43.665Z,12.60
2022-11-26T16:33:44.910Z,12.90
2022-11-26T16:37:47.270Z,12.70
2022-11-26T16:41:49.875Z,13.13
2022-11-26T16:45:52.112Z,14.90
2022-11-26T16:49:52.360Z,15.67
2022-11-26T16:53:52.770Z,16.73
2022-11-26T16:57:59.758Z,15.10
2022-11-26T17:02:00.029Z,18.03
2022-11-26T17:06:04.460Z,14.13
2022-11-26T17:10:06.471Z,15.37
2022-11-26T17:14:12.397Z,13.77
2022-11-26T17:18:21.364Z,13.80
2022-11-26T17:22:21.583Z,13.50
2022-11-26T17:26:25.200Z,14.23
2022-11-26T17:30:28.173Z,13.77
2022-11-26T17:34:28.798Z,14.57
2022-11-26T17:38:29.651Z,13.13
2022-11-26T17:42:35.013Z,13.07
2022-11-26T17:46:54.485Z,14.03
2022-11-26T17:50:59.365Z,12.87
2022-11-26T17:54:59.651Z,15.20
2022-11-26T17:59:03.178Z,18.77
2022-11-26T18:03:05.983Z,17.37
2022-11-26T18:07:11.034Z,16.03
2022-11-26T18:11:11.193Z,17.87
2022-11-26T18:15:18.674Z,17.17
2022-11-26T18:19:25.024Z,16.63
2022-11-26T18:23:25.362Z,13.60
2022-11-26T18:27:30.195Z,14.20
2022-11-26T18:31:36.638Z,13.27
2022-11-26T18:35:43.831Z,13.80
2022-11-26T18:39:44.570Z,15.00
2022-11-26T18:43:45.743Z,12.90
2022-11-26T18:47:46.551Z,16.30
2022-11-26T18:51:49.576Z,16.53
2022-11-26T18:55:49.688Z,14.23
2022-11-26T18:59:50.699Z,13.37
2022-11-26T19:03:51.215Z,12.33
2022-11-26T19:07:53.923Z,12.87
2022-11-26T19:11:58.332Z,11.80
2022-11-26T19:15:58.706Z,14.93
2022-11-26T19:19:58.801Z,15.43
2022-11-26T19:24:04.713Z,14.03
2022-11-26T19:28:05.334Z,11.77
2022-11-26T19:32:06.041Z,12.37
2022-11-26T19:36:07.691Z,10.70
2022-11-26T19:40:13.214Z,10.43
2022-11-26T19:44:13.634Z,10.60
2022-11-26T19:48:13.865Z,11.57
2022-11-26T19:52:14.056Z,11.23
2022-11-26T19:56:20.838Z,12.70
2022-11-26T20:00:21.862Z,15.10
2022-11-26T20:04:22.090Z,15.10
2022-11-26T20:08:22.593Z,13.03
2022-11-26T20:12:25.542Z,13.03
2022-11-26T20:16:29.504Z,13.50
2022-11-26T20:20:29.746Z,15.77
2022-11-26T20:24:29.859Z,23.23
2022-11-26T20:28:32.679Z,27.00
2022-11-26T20:32:32.830Z,24.50
2022-11-26T20:36:33.549Z,21.03
2022-11-26T20:40:33.981Z,16.90
2022-11-26T20:44:37.622Z,19.90
2022-11-26T20:48:40.096Z,18.97
2022-11-26T20:52:40.240Z,19.13
2022-11-26T20:56:41.093Z,16.27
2022-11-26T21:00:45.042Z,15.60
2022-11-26T21:04:45.552Z,27.53
2022-11-26T21:08:46.724Z,23.00
2022-11-26T21:12:46.842Z,17.97
2022-11-26T21:16:49.680Z,16.10
2022-11-26T21:20:49.985Z,20.57
2022-11-26T21:24:50.223Z,22.17
2022-11-26T21:28:54.162Z,19.70
2022-11-26T21:32:57.043Z,19.87
2022-11-26T21:36:57.224Z,16.77
2022-11-26T21:40:57.374Z,15.30
2022-11-26T21:44:57.535Z,19.30
2022-11-26T21:49:03.226Z,13.03
2022-11-26T21:53:03.507Z,13.03
2022-11-26T21:57:03.625Z,23.90
2022-11-26T22:01:04.014Z,19.03
2022-11-26T22:05:07.934Z,16.73
2022-11-26T22:09:08.884Z,15.10
2022-11-26T22:13:08.928Z,13.00
2022-11-26T22:17:09.078Z,12.43
2022-11-26T22:21:16.711Z,12.93
2022-11-26T22:25:17.112Z,15.60
2022-11-26T22:29:18.926Z,24.83
2022-11-26T22:33:19.122Z,14.87
2022-11-26T22:37:21.890Z,14.03
2022-11-26T22:41:22.826Z,14.83
2022-11-26T22:45:23.070Z,25.27
2022-11-26T22:49:23.293Z,23.83
2022-11-26T22:53:28.353Z,18.33
2022-11-26T22:57:28.605Z,14.50
2022-11-26T23:01:31.830Z,15.57
2022-11-26T23:05:39.441Z,18.90
2022-11-26T23:09:46.564Z,16.67
2022-11-26T23:13:49.825Z,18.33
2022-11-26T23:17:50.216Z,20.40
2022-11-26T23:21:50.305Z,25.03
2022-11-26T23:25:52.993Z,22.20
2022-11-26T23:29:53.234Z,23.47
2022-11-26T23:33:53.877Z,24.27
2022-11-26T23:37:54.052Z,24.60
2022-11-26T23:41:56.872Z,23.60
2022-11-26T23:46:04.555Z,24.50
2022-11-26T23:50:04.810Z,23.27
2022-11-26T23:54:05.268Z,21.17
2022-11-26T23:58:07.966Z,19.93
